Time;durP1;ratioP1;P1;durP2;ratioP2;P2;SDS_P1;SDS_P2;PMS_P1;PMS_P2;Temp;Humidity;BMP_temperature;BMP_pressure;BME280_temperature;BME280_humidity;BME280_pressure;Samples;Min_cycle;Max_cycle;Signal;HPM_P1;HPM_P2
2022/01/23 00:02:12;;;;;;;3.35;1.80;;;;;;;;;;4995885;28;20030;-22
2022/01/23 00:04:39;;;;;;;4.80;2.50;;;;;;;;;;4997150;28;20030;-21
2022/01/23 00:07:08;;;;;;;4.57;2.20;;;;;;;;;;4995751;28;20474;-21
2022/01/23 00:09:34;;;;;;;3.95;2.05;;;;;;;;;;4996763;28;20049;-22
2022/01/23 00:12:05;;;;;;;5.00;1.75;;;;;;;;;;4996891;28;20035;-22
2022/01/23 00:19:42;;;;;;;6.93;2.92;;;;;;;;;;4996936;28;20511;-23
2022/01/23 00:22:11;;;;;;;5.07;1.65;;;;;;;;;;4996414;28;20034;-21
2022/01/23 00:30:24;;;;;;;3.00;1.88;;;;;;;;;;4996910;28;20157;-22
2022/01/23 00:32:50;;;;;;;2.95;1.92;;;;;;;;;;4996248;28;20038;-22
2022/01/23 00:35:17;;;;;;;8.43;2.13;;;;;;;;;;4996250;28;20089;-22
2022/01/23 00:37:43;;;;;;;2.72;1.67;;;;;;;;;;4996484;28;20041;-23
2022/01/23 00:40:10;;;;;;;5.70;1.90;;;;;;;;;;4996155;28;20038;-23
2022/01/23 00:42:36;;;;;;;3.83;1.45;;;;;;;;;;4996297;28;20042;-22
2022/01/23 00:45:25;;;;;;;5.28;1.75;;;;;;;;;;4996078;28;20145;-21
2022/01/23 00:47:57;;;;;;;3.42;1.45;;;;;;;;;;4996652;28;20385;-22
2022/01/23 00:50:23;;;;;;;3.08;1.90;;;;;;;;;;4996252;28;20033;-21
2022/01/23 00:52:50;;;;;;;3.38;1.75;;;;;;;;;;4996061;28;20091;-22
2022/01/23 00:55:16;;;;;;;4.25;1.80;;;;;;;;;;4996410;28;20030;-22
2022/01/23 00:57:42;;;;;;;4.70;2.10;;;;;;;;;;4995833;28;20030;-22
2022/01/23 01:00:09;;;;;;;3.70;2.20;;;;;;;;;;4996052;28;20168;-22
2022/01/23 01:02:36;;;;;;;4.95;1.73;;;;;;;;;;4995822;28;20037;-21
2022/01/23 01:05:03;;;;;;;4.15;2.03;;;;;;;;;;4994802;28;20458;-22
2022/01/23 01:07:29;;;;;;;5.95;1.90;;;;;;;;;;4995888;28;20041;-22
2022/01/23 01:10:00;;;;;;;4.15;2.35;;;;;;;;;;4995924;28;20105;-21
2022/01/23 01:12:35;;;;;;;3.80;2.15;;;;;;;;;;4995619;28;20045;-21
2022/01/23 01:15:27;;;;;;;2.97;1.70;;;;;;;;;;4995608;28;20042;-22
2022/01/23 01:37:13;;;;;;;2.63;2.00;;;;;;;;;;4995300;28;20034;-22
2022/01/23 01:39:07;;;;;;;2.85;1.52;;;;;;;;;;4994662;28;20045;-21
2022/01/23 01:41:38;;;;;;;3.38;1.40;;;;;;;;;;4995233;28;20358;-22
2022/01/23 01:44:04;;;;;;;3.55;1.30;;;;;;;;;;4995453;28;20430;-22
2022/01/23 01:46:30;;;;;;;4.90;1.70;;;;;;;;;;4995640;28;20105;-22
2022/01/23 01:48:57;;;;;;;2.85;1.58;;;;;;;;;;4995013;28;20038;-22
2022/01/23 01:51:24;;;;;;;3.88;1.50;;;;;;;;;;4995061;28;20026;-22
2022/01/23 01:53:56;;;;;;;4.85;2.13;;;;;;;;;;4994945;28;20030;-22
2022/01/23 01:56:22;;;;;;;2.85;1.73;;;;;;;;;;4995000;28;20035;-22
2022/01/23 02:09:26;;;;;;;2.92;2.00;;;;;;;;;;4994937;28;20109;-23
2022/01/23 02:14:42;;;;;;;3.08;1.63;;;;;;;;;;4994911;28;20113;-23
2022/01/23 02:17:37;;;;;;;3.70;1.30;;;;;;;;;;4995200;28;20022;-22
2022/01/23 02:50:46;;;;;;;3.88;1.40;;;;;;;;;;4998723;28;20041;-22
2022/01/23 02:53:33;;;;;;;5.45;3.28;;;;;;;;;;4998616;28;20034;-22
2022/01/23 02:56:01;;;;;;;2.63;1.40;;;;;;;;;;4998128;28;20466;-22
2022/01/23 02:58:35;;;;;;;5.05;1.60;;;;;;;;;;4998064;28;20038;-22
2022/01/23 03:03:35;;;;;;;2.75;1.73;;;;;;;;;;4997921;28;20034;-22
2022/01/23 03:11:52;;;;;;;2.38;1.52;;;;;;;;;;4998159;28;20046;-21
2022/01/23 03:14:39;;;;;;;3.05;1.80;;;;;;;;;;4997589;28;20053;-22
2022/01/23 03:28:21;;;;;;;6.15;1.45;;;;;;;;;;4995925;28;20054;-22
2022/01/23 03:33:20;;;;;;;4.00;2.75;;;;;;;;;;4997289;28;20086;-24
2022/01/23 03:35:46;;;;;;;3.53;1.63;;;;;;;;;;4997390;28;20018;-22
2022/01/23 03:38:12;;;;;;;2.83;1.30;;;;;;;;;;4997867;28;20045;-24
2022/01/23 03:40:38;;;;;;;3.60;1.38;;;;;;;;;;4997555;28;20065;-22
2022/01/23 03:43:10;;;;;;;2.85;2.08;;;;;;;;;;4996182;28;20076;-22
2022/01/23 03:50:43;;;;;;;5.70;2.58;;;;;;;;;;4997399;28;20042;-21
2022/01/23 03:53:09;;;;;;;2.55;1.70;;;;;;;;;;4996713;28;20023;-22
2022/01/23 03:55:35;;;;;;;2.95;1.40;;;;;;;;;;4997291;28;20076;-22
2022/01/23 03:58:02;;;;;;;1.98;1.40;;;;;;;;;;4997205;28;20085;-22
2022/01/23 04:00:28;;;;;;;3.70;1.63;;;;;;;;;;4996924;28;20084;-23
2022/01/23 04:02:54;;;;;;;3.35;1.92;;;;;;;;;;4997076;28;20093;-22
2022/01/23 04:05:20;;;;;;;3.38;1.90;;;;;;;;;;4997111;28;20075;-21
2022/01/23 04:07:47;;;;;;;2.08;1.13;;;;;;;;;;4996710;28;20038;-24
2022/01/23 04:10:17;;;;;;;4.30;1.45;;;;;;;;;;4996998;28;20022;-22
2022/01/23 04:12:51;;;;;;;1.70;1.13;;;;;;;;;;4996902;28;20019;-22
2022/01/23 04:15:31;;;;;;;3.53;1.33;;;;;;;;;;4997207;28;20109;-22
2022/01/23 04:34:21;;;;;;;4.03;1.38;;;;;;;;;;4996234;28;20347;-21
2022/01/23 05:01:28;;;;;;;2.50;1.50;;;;;;;;;;4996144;28;20642;-22
2022/01/23 05:06:41;;;;;;;1.45;1.33;;;;;;;;;;4995336;28;20062;-23
2022/01/23 05:09:08;;;;;;;2.20;1.80;;;;;;;;;;4995523;28;20033;-22
2022/01/23 05:11:35;;;;;;;1.42;1.25;;;;;;;;;;4995977;28;20029;-22
2022/01/23 05:14:02;;;;;;;1.85;1.10;;;;;;;;;;4995645;28;20472;-23
2022/01/23 05:16:31;;;;;;;3.03;1.80;;;;;;;;;;4995645;28;20042;-23
2022/01/23 05:18:58;;;;;;;2.50;1.30;;;;;;;;;;4994555;28;20044;-22
2022/01/23 05:23:57;;;;;;;1.92;1.70;;;;;;;;;;4995519;28;20026;-22
2022/01/23 05:26:23;;;;;;;2.05;1.60;;;;;;;;;;4995248;28;20054;-22
2022/01/23 05:28:49;;;;;;;4.28;1.27;;;;;;;;;;4995297;28;20035;-22
2022/01/23 05:31:15;;;;;;;2.25;1.77;;;;;;;;;;4996193;28;20029;-23
2022/01/23 05:33:42;;;;;;;2.53;1.35;;;;;;;;;;4994336;28;20509;-21
2022/01/23 05:36:08;;;;;;;1.88;1.13;;;;;;;;;;4995306;28;20042;-21
2022/01/23 05:38:34;;;;;;;3.53;1.38;;;;;;;;;;4995626;28;20386;-22
2022/01/23 05:41:01;;;;;;;2.92;1.35;;;;;;;;;;4995337;28;20512;-21
2022/01/23 05:43:27;;;;;;;1.65;1.55;;;;;;;;;;4995523;28;20036;-23
2022/01/23 05:45:53;;;;;;;2.67;1.95;;;;;;;;;;4995265;28;20030;-22
2022/01/23 05:48:20;;;;;;;2.85;1.25;;;;;;;;;;4995188;28;20045;-22
2022/01/23 05:50:47;;;;;;;1.88;1.23;;;;;;;;;;4995231;28;20437;-22
2022/01/23 05:53:13;;;;;;;2.47;1.50;;;;;;;;;;4995338;28;20018;-22
2022/01/23 05:55:39;;;;;;;3.10;1.50;;;;;;;;;;4995436;28;20350;-22
2022/01/23 05:58:05;;;;;;;2.42;1.98;;;;;;;;;;4995653;28;20031;-22
2022/01/23 06:00:32;;;;;;;1.40;1.08;;;;;;;;;;4995165;28;20046;-22
2022/01/23 06:02:58;;;;;;;2.55;1.55;;;;;;;;;;4994573;28;20315;-21
2022/01/23 06:05:24;;;;;;;3.10;1.10;;;;;;;;;;4995087;28;20058;-21
2022/01/23 06:07:51;;;;;;;1.52;1.42;;;;;;;;;;4995015;28;20034;-24
2022/01/23 06:10:23;;;;;;;2.90;1.70;;;;;;;;;;4995581;28;20117;-22
2022/01/23 06:12:50;;;;;;;3.72;1.65;;;;;;;;;;4994963;28;20415;-22
2022/01/23 06:15:17;;;;;;;3.28;1.27;;;;;;;;;;4995227;28;20019;-22
2022/01/23 06:17:43;;;;;;;3.80;1.13;;;;;;;;;;4998074;28;20065;-22
2022/01/23 06:20:11;;;;;;;1.77;1.30;;;;;;;;;;4997937;28;20038;-22
2022/01/23 06:22:37;;;;;;;1.58;1.38;;;;;;;;;;4998998;28;20057;-22
2022/01/23 06:25:06;;;;;;;3.10;1.52;;;;;;;;;;4998834;28;20029;-22
2022/01/23 06:27:32;;;;;;;3.13;1.70;;;;;;;;;;4998452;28;20065;-23
2022/01/23 06:29:59;;;;;;;1.23;1.13;;;;;;;;;;4998714;28;20022;-21
2022/01/23 06:32:25;;;;;;;2.15;1.17;;;;;;;;;;4998520;28;20101;-22
2022/01/23 06:34:51;;;;;;;2.97;1.58;;;;;;;;;;4999353;28;20031;-22
2022/01/23 06:37:17;;;;;;;1.58;1.33;;;;;;;;;;4998797;28;20030;-22
2022/01/23 06:39:44;;;;;;;2.47;1.23;;;;;;;;;;4998514;28;20366;-22
2022/01/23 06:42:10;;;;;;;2.25;1.42;;;;;;;;;;4998424;28;20101;-22
2022/01/23 06:44:38;;;;;;;2.80;2.10;;;;;;;;;;4998873;28;20459;-22
2022/01/23 06:47:04;;;;;;;4.07;1.70;;;;;;;;;;4998673;28;20053;-21
2022/01/23 06:49:30;;;;;;;2.10;1.77;;;;;;;;;;4998509;28;20030;-22
2022/01/23 06:51:57;;;;;;;1.67;1.10;;;;;;;;;;4998128;28;20088;-23
2022/01/23 06:54:23;;;;;;;1.92;1.40;;;;;;;;;;4997941;28;20022;-22
2022/01/23 06:56:49;;;;;;;2.00;1.10;;;;;;;;;;4998193;28;20034;-22
2022/01/23 06:59:15;;;;;;;3.38;1.30;;;;;;;;;;4998785;28;20354;-22
2022/01/23 07:01:42;;;;;;;1.98;1.33;;;;;;;;;;4998198;28;20045;-22
2022/01/23 07:04:08;;;;;;;1.38;1.15;;;;;;;;;;4998119;28;20370;-22
2022/01/23 07:06:34;;;;;;;2.15;1.20;;;;;;;;;;4997167;28;20026;-22
2022/01/23 07:09:00;;;;;;;3.03;1.08;;;;;;;;;;4997962;28;20030;-22
2022/01/23 07:11:26;;;;;;;3.50;1.23;;;;;;;;;;4998772;28;20331;-22
2022/01/23 07:13:53;;;;;;;3.90;1.25;;;;;;;;;;4997860;28;20370;-21
2022/01/23 07:16:19;;;;;;;1.30;1.20;;;;;;;;;;4998149;28;20037;-23
2022/01/23 07:18:45;;;;;;;1.25;1.15;;;;;;;;;;4997864;28;20046;-22
2022/01/23 07:21:12;;;;;;;2.10;1.20;;;;;;;;;;4998096;28;20102;-22
2022/01/23 07:23:38;;;;;;;2.08;1.63;;;;;;;;;;4997947;28;20053;-21
2022/01/23 07:26:04;;;;;;;1.23;1.08;;;;;;;;;;4997676;28;20046;-22
2022/01/23 07:28:40;;;;;;;1.88;1.05;;;;;;;;;;4995676;28;20034;-22
2022/01/23 07:31:08;;;;;;;1.65;1.20;;;;;;;;;;4997968;28;20030;-22
2022/01/23 07:33:36;;;;;;;2.25;1.63;;;;;;;;;;4997487;28;20061;-21
2022/01/23 07:36:02;;;;;;;2.10;1.30;;;;;;;;;;4997519;28;20041;-22
2022/01/23 07:38:29;;;;;;;1.52;1.23;;;;;;;;;;4997470;28;20102;-22
2022/01/23 07:40:55;;;;;;;1.13;1.02;;;;;;;;;;4997405;28;20027;-22
2022/01/23 07:43:21;;;;;;;3.28;1.25;;;;;;;;;;4997293;28;20042;-22
2022/01/23 07:45:47;;;;;;;1.52;1.27;;;;;;;;;;4997337;28;20504;-22
2022/01/23 07:48:13;;;;;;;1.40;1.27;;;;;;;;;;4997300;28;20366;-24
2022/01/23 07:50:39;;;;;;;2.03;1.55;;;;;;;;;;4997260;28;20069;-22
2022/01/23 07:53:06;;;;;;;1.67;1.13;;;;;;;;;;4997085;28;20033;-22
2022/01/23 07:55:32;;;;;;;1.27;1.17;;;;;;;;;;4997489;28;20097;-23
2022/01/23 07:58:12;;;;;;;1.33;1.23;;;;;;;;;;4997097;28;20034;-22
2022/01/23 08:00:38;;;;;;;3.80;1.58;;;;;;;;;;4997338;28;20039;-22
2022/01/23 08:03:05;;;;;;;1.65;1.55;;;;;;;;;;4997497;28;20128;-21
2022/01/23 08:05:31;;;;;;;2.00;1.33;;;;;;;;;;4996956;28;20034;-22
2022/01/23 08:07:57;;;;;;;1.48;1.35;;;;;;;;;;4997386;28;20041;-22
2022/01/23 08:10:24;;;;;;;2.25;1.63;;;;;;;;;;4996908;28;20030;-22
2022/01/23 08:12:50;;;;;;;4.32;1.27;;;;;;;;;;4996810;28;20113;-22
2022/01/23 08:15:16;;;;;;;2.28;1.40;;;;;;;;;;4996749;28;20538;-22
2022/01/23 08:17:42;;;;;;;1.48;1.20;;;;;;;;;;4996671;28;20113;-22
2022/01/23 08:20:09;;;;;;;2.22;1.15;;;;;;;;;;4996656;28;20030;-23
2022/01/23 08:22:35;;;;;;;2.95;1.35;;;;;;;;;;4996596;28;20362;-22
2022/01/23 08:25:02;;;;;;;1.33;0.90;;;;;;;;;;4996604;28;20106;-22
2022/01/23 08:27:29;;;;;;;7.63;2.50;;;;;;;;;;4996332;28;20099;-22
2022/01/23 08:29:55;;;;;;;4.80;1.00;;;;;;;;;;4996474;28;20034;-22
2022/01/23 08:32:21;;;;;;;4.03;1.50;;;;;;;;;;4996424;28;20019;-22
2022/01/23 08:34:48;;;;;;;1.67;1.17;;;;;;;;;;4995515;28;20161;-22
2022/01/23 08:37:15;;;;;;;2.80;1.33;;;;;;;;;;4996394;28;20101;-21
2022/01/23 08:39:41;;;;;;;2.80;1.52;;;;;;;;;;4996257;28;20132;-24
2022/01/23 08:42:12;;;;;;;1.35;1.23;;;;;;;;;;4996920;28;20027;-23
2022/01/23 08:44:39;;;;;;;3.38;1.38;;;;;;;;;;4996555;28;20061;-22
2022/01/23 08:47:06;;;;;;;2.20;1.50;;;;;;;;;;4996245;28;20038;-22
2022/01/23 08:49:33;;;;;;;1.95;1.00;;;;;;;;;;4996366;28;20038;-23
2022/01/23 08:51:59;;;;;;;2.20;1.10;;;;;;;;;;4996812;28;20033;-22
2022/01/23 08:54:27;;;;;;;2.65;1.35;;;;;;;;;;4996066;28;20358;-22
2022/01/23 08:56:53;;;;;;;1.67;1.13;;;;;;;;;;4996248;28;20023;-22
2022/01/23 08:59:20;;;;;;;4.03;1.40;;;;;;;;;;4995874;28;20034;-22
2022/01/23 09:01:47;;;;;;;1.63;1.25;;;;;;;;;;4995875;28;20476;-22
2022/01/23 09:04:15;;;;;;;2.38;1.50;;;;;;;;;;4995761;28;20525;-22
2022/01/23 09:06:43;;;;;;;1.52;1.33;;;;;;;;;;4995802;28;20045;-22
2022/01/23 09:09:15;;;;;;;5.10;1.38;;;;;;;;;;4995615;28;20038;-24
2022/01/23 09:11:53;;;;;;;1.83;1.35;;;;;;;;;;4995989;28;20101;-22
2022/01/23 09:14:20;;;;;;;1.60;1.42;;;;;;;;;;4995595;28;20109;-23
2022/01/23 09:16:48;;;;;;;1.48;1.38;;;;;;;;;;4995628;28;20022;-22
2022/01/23 09:19:17;;;;;;;3.53;1.30;;;;;;;;;;4995509;28;20037;-23
2022/01/23 09:21:44;;;;;;;4.85;1.42;;;;;;;;;;4995797;28;20073;-22
2022/01/23 09:24:10;;;;;;;4.28;1.42;;;;;;;;;;4995741;28;20110;-22
2022/01/23 09:26:37;;;;;;;1.20;1.10;;;;;;;;;;4995374;28;20061;-25
2022/01/23 09:29:12;;;;;;;2.03;1.23;;;;;;;;;;4995680;28;20052;-22
2022/01/23 09:32:12;;;;;;;3.40;1.50;;;;;;;;;;4995449;28;20031;-22
2022/01/23 09:34:32;;;;;;;1.95;1.27;;;;;;;;;;4995219;28;20027;-22
2022/01/23 09:37:00;;;;;;;2.75;1.40;;;;;;;;;;4995375;28;20038;-22
2022/01/23 09:39:26;;;;;;;2.40;1.20;;;;;;;;;;4995683;28;20030;-22
2022/01/23 09:42:00;;;;;;;1.67;1.23;;;;;;;;;;4995256;28;20109;-22
2022/01/23 09:44:27;;;;;;;1.20;1.05;;;;;;;;;;4995312;28;20041;-23
2022/01/23 09:46:54;;;;;;;1.50;1.40;;;;;;;;;;4995568;28;20081;-22
2022/01/23 09:49:21;;;;;;;4.25;3.20;;;;;;;;;;4995218;28;20044;-22
2022/01/23 09:51:49;;;;;;;1.73;1.05;;;;;;;;;;4994754;28;20035;-23
2022/01/23 09:54:17;;;;;;;1.17;0.82;;;;;;;;;;4995517;28;20101;-22
2022/01/23 09:56:44;;;;;;;1.67;1.20;;;;;;;;;;4995478;28;20057;-22
2022/01/23 09:59:11;;;;;;;1.85;1.48;;;;;;;;;;4994236;28;20098;-23
2022/01/23 10:01:38;;;;;;;1.63;1.15;;;;;;;;;;4995412;28;20049;-22
2022/01/23 10:04:04;;;;;;;2.45;1.48;;;;;;;;;;4994499;28;20339;-22
2022/01/23 10:06:31;;;;;;;2.40;1.38;;;;;;;;;;4995093;28;20057;-22
2022/01/23 10:08:57;;;;;;;1.85;1.60;;;;;;;;;;4995765;28;20126;-22
2022/01/23 10:11:23;;;;;;;8.75;1.48;;;;;;;;;;4995557;28;20027;-22
2022/01/23 10:13:50;;;;;;;3.28;2.25;;;;;;;;;;4994030;28;20393;-22
2022/01/23 10:16:17;;;;;;;2.03;1.40;;;;;;;;;;4995195;28;20212;-22
2022/01/23 10:18:43;;;;;;;5.15;1.38;;;;;;;;;;4994959;28;20481;-22
2022/01/23 10:21:11;;;;;;;2.55;1.50;;;;;;;;;;4995470;28;20030;-23
2022/01/23 10:23:37;;;;;;;1.85;1.48;;;;;;;;;;4994835;28;20034;-22
2022/01/23 10:26:04;;;;;;;4.65;1.30;;;;;;;;;;4994620;28;20047;-22
2022/01/23 10:28:33;;;;;;;1.20;1.10;;;;;;;;;;4994667;28;20113;-23
2022/01/23 10:31:01;;;;;;;3.15;1.65;;;;;;;;;;4994747;28;20049;-22
2022/01/23 10:33:32;;;;;;;3.05;1.67;;;;;;;;;;4994836;28;20030;-22
2022/01/23 10:36:06;;;;;;;4.03;1.40;;;;;;;;;;4993873;28;20409;-22
2022/01/23 10:38:45;;;;;;;1.35;1.08;;;;;;;;;;4995047;28;20101;-23
2022/01/23 10:49:56;;;;;;;1.58;1.25;;;;;;;;;;4992085;28;20046;-22
2022/01/23 10:52:34;;;;;;;2.20;1.63;;;;;;;;;;4994829;28;20038;-22
2022/01/23 10:55:27;;;;;;;3.42;1.83;;;;;;;;;;4995006;28;20034;-22
2022/01/23 10:57:56;;;;;;;4.45;1.50;;;;;;;;;;4992813;28;20109;-22
2022/01/23 11:00:22;;;;;;;4.80;1.48;;;;;;;;;;4994837;28;20166;-22
2022/01/23 11:02:48;;;;;;;1.63;1.48;;;;;;;;;;4994827;28;20109;-22
2022/01/23 11:05:17;;;;;;;3.05;1.48;;;;;;;;;;4998128;28;20027;-22
2022/01/23 11:07:45;;;;;;;3.50;1.30;;;;;;;;;;4998236;28;20023;-23
2022/01/23 11:10:21;;;;;;;1.50;1.20;;;;;;;;;;4997971;28;20022;-23
2022/01/23 11:18:04;;;;;;;1.63;1.42;;;;;;;;;;4998408;28;20045;-22
2022/01/23 11:20:30;;;;;;;1.05;0.98;;;;;;;;;;4997761;28;20038;-22
2022/01/23 11:23:12;;;;;;;2.78;1.38;;;;;;;;;;4998749;28;20041;-23
2022/01/23 11:25:39;;;;;;;1.42;1.10;;;;;;;;;;4997530;28;20065;-23
2022/01/23 11:28:05;;;;;;;0.93;0.80;;;;;;;;;;4998124;28;20039;-22
2022/01/23 11:30:39;;;;;;;4.72;1.33;;;;;;;;;;4997605;28;20046;-22
2022/01/23 11:33:07;;;;;;;2.20;1.52;;;;;;;;;;4997495;28;20026;-22
2022/01/23 11:35:33;;;;;;;4.55;1.70;;;;;;;;;;4997828;28;20085;-22
2022/01/23 11:38:00;;;;;;;3.53;1.40;;;;;;;;;;4997623;28;20110;-21
2022/01/23 11:53:57;;;;;;;1.30;1.13;;;;;;;;;;4997167;28;20378;-22
2022/01/23 11:56:27;;;;;;;5.15;1.52;;;;;;;;;;4997413;28;20070;-22
2022/01/23 11:58:55;;;;;;;1.48;1.10;;;;;;;;;;4997021;28;20113;-21
2022/01/23 12:01:24;;;;;;;3.55;1.40;;;;;;;;;;4997291;28;20041;-22
2022/01/23 12:04:09;;;;;;;2.45;1.30;;;;;;;;;;4997691;28;20040;-22
2022/01/23 12:06:39;;;;;;;2.65;1.92;;;;;;;;;;4997712;28;20037;-22
2022/01/23 12:09:19;;;;;;;4.13;2.93;;;;;;;;;;4997166;28;20179;-23
2022/01/23 12:12:19;;;;;;;3.20;1.45;;;;;;;;;;4997121;28;20097;-23
2022/01/23 12:17:12;;;;;;;2.78;1.20;;;;;;;;;;4996799;28;20065;-22
2022/01/23 12:19:53;;;;;;;2.47;1.60;;;;;;;;;;4996748;28;20457;-22
2022/01/23 12:22:22;;;;;;;2.00;1.10;;;;;;;;;;4996613;28;20026;-22
2022/01/23 12:24:49;;;;;;;2.20;1.35;;;;;;;;;;4996646;28;20022;-22
2022/01/23 12:27:28;;;;;;;1.63;1.13;;;;;;;;;;4996166;28;20046;-22
2022/01/23 12:30:10;;;;;;;1.17;1.02;;;;;;;;;;4997009;28;20031;-22
2022/01/23 12:32:37;;;;;;;2.05;1.27;;;;;;;;;;4996318;28;20031;-22
2022/01/23 12:35:07;;;;;;;2.13;1.40;;;;;;;;;;4996685;28;20033;-22
2022/01/23 12:37:52;;;;;;;3.47;1.40;;;;;;;;;;4996662;28;20026;-23
2022/01/23 12:40:32;;;;;;;1.35;1.05;;;;;;;;;;4996369;28;20480;-23
2022/01/23 12:43:17;;;;;;;2.45;1.35;;;;;;;;;;4996544;28;20034;-22
2022/01/23 12:45:56;;;;;;;1.85;1.58;;;;;;;;;;4996283;28;20022;-22
2022/01/23 12:48:25;;;;;;;2.08;1.35;;;;;;;;;;4996919;28;20061;-22
2022/01/23 12:51:15;;;;;;;1.92;1.23;;;;;;;;;;4996445;28;20054;-23
2022/01/23 12:53:47;;;;;;;2.13;1.48;;;;;;;;;;4995783;28;20030;-22
2022/01/23 12:56:14;;;;;;;2.25;1.20;;;;;;;;;;4996622;28;20041;-24
2022/01/23 12:58:41;;;;;;;2.42;1.30;;;;;;;;;;4996291;28;20026;-22
2022/01/23 13:01:09;;;;;;;2.83;1.42;;;;;;;;;;4995964;28;20030;-22
2022/01/23 13:03:37;;;;;;;3.00;1.08;;;;;;;;;;4995868;28;20033;-22
2022/01/23 13:06:07;;;;;;;3.63;1.38;;;;;;;;;;4996142;28;20034;-22
2022/01/23 13:08:37;;;;;;;1.75;1.38;;;;;;;;;;4995765;28;20029;-22
2022/01/23 13:32:33;;;;;;;2.03;1.20;;;;;;;;;;4995423;28;20092;-22
2022/01/23 13:35:07;;;;;;;1.40;1.30;;;;;;;;;;4996011;28;20022;-21
2022/01/23 13:37:36;;;;;;;2.17;1.30;;;;;;;;;;4995416;28;20026;-22
2022/01/23 13:40:08;;;;;;;4.75;1.30;;;;;;;;;;4995638;28;20031;-22
2022/01/23 13:59:13;;;;;;;7.05;1.65;;;;;;;;;;4995439;28;20076;-22
2022/01/23 14:04:26;;;;;;;2.65;1.27;;;;;;;;;;4995724;28;20049;-22
2022/01/23 14:06:52;;;;;;;1.48;1.20;;;;;;;;;;4995136;28;20030;-22
2022/01/23 14:09:19;;;;;;;3.33;1.40;;;;;;;;;;4995011;28;20107;-22
2022/01/23 14:11:46;;;;;;;1.70;1.23;;;;;;;;;;4995409;28;20038;-22
2022/01/23 14:14:16;;;;;;;1.95;1.27;;;;;;;;;;4995314;28;20416;-22
2022/01/23 14:16:43;;;;;;;3.25;1.25;;;;;;;;;;4995069;28;20495;-22
2022/01/23 14:19:19;;;;;;;1.73;1.48;;;;;;;;;;4995543;28;20361;-22
2022/01/23 14:21:50;;;;;;;1.52;1.20;;;;;;;;;;4994894;28;20031;-22
2022/01/23 14:24:23;;;;;;;1.83;1.15;;;;;;;;;;4995588;28;20076;-23
2022/01/23 14:27:03;;;;;;;5.53;1.08;;;;;;;;;;4994892;28;20115;-22
2022/01/23 14:29:30;;;;;;;3.03;1.53;;;;;;;;;;4995472;28;20050;-22
2022/01/23 14:32:46;;;;;;;3.85;1.25;;;;;;;;;;4995093;28;20258;-22
2022/01/23 14:35:11;;;;;;;2.30;1.17;;;;;;;;;;4994579;28;20053;-22
2022/01/23 14:37:38;;;;;;;3.65;1.77;;;;;;;;;;4996660;28;20104;-22
2022/01/23 14:40:09;;;;;;;1.85;1.67;;;;;;;;;;4998609;28;20042;-22
2022/01/23 14:42:35;;;;;;;2.05;1.50;;;;;;;;;;4998778;28;20026;-22
2022/01/23 14:45:08;;;;;;;4.28;1.55;;;;;;;;;;4998758;28;20034;-22
2022/01/23 14:47:36;;;;;;;3.88;1.40;;;;;;;;;;4998417;28;20429;-22
2022/01/23 14:50:06;;;;;;;4.82;1.67;;;;;;;;;;4998955;28;20022;-23
2022/01/23 14:52:32;;;;;;;2.05;1.45;;;;;;;;;;4997477;28;20029;-21
2022/01/23 14:54:58;;;;;;;1.42;1.20;;;;;;;;;;4998320;28;20080;-22
2022/01/23 14:57:24;;;;;;;2.22;1.35;;;;;;;;;;4997364;28;20026;-22
2022/01/23 14:59:50;;;;;;;2.08;1.40;;;;;;;;;;4998221;28;20474;-23
2022/01/23 15:02:16;;;;;;;1.90;1.55;;;;;;;;;;4998437;28;20041;-22
2022/01/23 15:04:47;;;;;;;3.45;1.70;;;;;;;;;;4998428;28;20061;-22
2022/01/23 15:07:15;;;;;;;3.03;1.42;;;;;;;;;;4998716;28;20046;-21
2022/01/23 15:09:43;;;;;;;1.80;1.30;;;;;;;;;;4998300;28;20034;-21
2022/01/23 15:12:10;;;;;;;3.47;1.52;;;;;;;;;;4997943;28;20030;-22
2022/01/23 15:14:36;;;;;;;2.00;1.75;;;;;;;;;;4998248;28;20034;-22
2022/01/23 15:17:02;;;;;;;1.92;1.30;;;;;;;;;;4998175;28;20030;-22
2022/01/23 15:19:28;;;;;;;1.52;1.42;;;;;;;;;;4998177;28;20096;-22
2022/01/23 15:21:55;;;;;;;1.95;1.10;;;;;;;;;;4997761;28;20027;-22
2022/01/23 15:24:21;;;;;;;3.20;1.52;;;;;;;;;;4997738;28;20084;-21
2022/01/23 15:26:47;;;;;;;3.13;1.70;;;;;;;;;;4997587;28;20046;-22
2022/01/23 15:29:13;;;;;;;2.90;1.38;;;;;;;;;;4997886;28;20062;-22
2022/01/23 15:31:40;;;;;;;4.60;1.40;;;;;;;;;;4997936;28;20018;-22
2022/01/23 15:34:06;;;;;;;3.05;1.13;;;;;;;;;;4997760;28;20030;-22
2022/01/23 15:36:32;;;;;;;1.88;1.40;;;;;;;;;;4998114;28;20030;-22
2022/01/23 15:38:59;;;;;;;1.40;1.30;;;;;;;;;;4998060;28;20027;-23
2022/01/23 15:41:25;;;;;;;2.50;1.02;;;;;;;;;;4997450;28;20027;-22
2022/01/23 15:43:52;;;;;;;2.03;1.30;;;;;;;;;;4997399;28;20109;-22
2022/01/23 15:46:18;;;;;;;1.35;1.25;;;;;;;;;;4997384;28;20026;-22
2022/01/23 15:48:44;;;;;;;1.50;1.35;;;;;;;;;;4997162;28;20030;-22
2022/01/23 15:51:10;;;;;;;3.15;1.40;;;;;;;;;;4997230;28;20101;-22
2022/01/23 15:53:36;;;;;;;1.88;1.35;;;;;;;;;;4997337;28;20093;-22
2022/01/23 15:56:03;;;;;;;2.10;1.33;;;;;;;;;;4997201;28;20058;-22
2022/01/23 15:58:29;;;;;;;4.40;1.85;;;;;;;;;;4997468;28;20331;-23
2022/01/23 16:00:56;;;;;;;2.40;1.40;;;;;;;;;;4997079;28;20118;-21
2022/01/23 16:03:24;;;;;;;1.52;1.23;;;;;;;;;;4997281;28;20057;-22
2022/01/23 16:05:50;;;;;;;1.88;1.65;;;;;;;;;;4997036;28;20453;-21
2022/01/23 16:08:17;;;;;;;1.83;1.42;;;;;;;;;;4997481;28;20034;-22
2022/01/23 16:10:43;;;;;;;1.50;1.40;;;;;;;;;;4996952;28;20042;-22
2022/01/23 16:13:09;;;;;;;1.30;1.20;;;;;;;;;;4996888;28;20353;-21
2022/01/23 16:15:35;;;;;;;2.97;1.40;;;;;;;;;;4997137;28;20026;-22
2022/01/23 16:18:02;;;;;;;1.88;1.50;;;;;;;;;;4996790;28;20474;-23
2022/01/23 16:20:28;;;;;;;1.50;1.40;;;;;;;;;;4997025;28;20421;-22
2022/01/23 16:22:55;;;;;;;2.17;2.00;;;;;;;;;;4996934;28;20022;-22
2022/01/23 16:25:21;;;;;;;1.58;1.48;;;;;;;;;;4996423;28;20030;-22
2022/01/23 16:27:47;;;;;;;1.55;1.45;;;;;;;;;;4996529;28;20054;-22
2022/01/23 16:30:14;;;;;;;1.52;0.90;;;;;;;;;;4996862;28;20153;-22
2022/01/23 16:32:40;;;;;;;2.00;1.35;;;;;;;;;;4996486;28;20037;-22
2022/01/23 16:35:07;;;;;;;2.22;1.30;;;;;;;;;;4996506;28;20022;-22
2022/01/23 16:37:33;;;;;;;1.63;1.52;;;;;;;;;;4996701;28;20080;-22
2022/01/23 16:39:59;;;;;;;1.85;1.70;;;;;;;;;;4996716;28;20069;-21
2022/01/23 16:42:25;;;;;;;1.30;1.20;;;;;;;;;;4996487;28;20045;-22
2022/01/23 16:44:51;;;;;;;2.05;1.58;;;;;;;;;;4996544;28;20085;-22
2022/01/23 16:47:18;;;;;;;1.38;1.27;;;;;;;;;;4996260;28;20022;-22
2022/01/23 16:49:44;;;;;;;1.77;1.52;;;;;;;;;;4996125;28;20030;-22
2022/01/23 16:52:11;;;;;;;1.55;1.27;;;;;;;;;;4996385;28;20031;-22
2022/01/23 16:54:38;;;;;;;2.63;2.42;;;;;;;;;;4996035;28;20034;-22
2022/01/23 16:57:04;;;;;;;3.47;1.40;;;;;;;;;;4996115;28;20030;-22
2022/01/23 16:59:30;;;;;;;1.48;1.25;;;;;;;;;;4995165;28;20454;-21
2022/01/23 17:01:57;;;;;;;2.22;1.15;;;;;;;;;;4995820;28;20109;-22
2022/01/23 17:04:24;;;;;;;5.72;1.25;;;;;;;;;;4995920;28;20038;-22
2022/01/23 17:06:50;;;;;;;2.88;1.20;;;;;;;;;;4996353;28;20030;-22
2022/01/23 17:09:16;;;;;;;1.65;1.02;;;;;;;;;;4995764;28;20034;-22
2022/01/23 17:11:42;;;;;;;1.50;1.40;;;;;;;;;;4994900;28;20508;-22
2022/01/23 17:14:09;;;;;;;7.20;1.20;;;;;;;;;;4994779;28;20026;-24
2022/01/23 17:16:35;;;;;;;1.23;1.00;;;;;;;;;;4995716;28;20085;-23
2022/01/23 17:19:01;;;;;;;3.95;1.70;;;;;;;;;;4995926;28;20040;-23
2022/01/23 17:21:27;;;;;;;2.95;1.40;;;;;;;;;;4995647;28;20026;-22
2022/01/23 17:23:54;;;;;;;2.50;1.25;;;;;;;;;;4995563;28;20084;-22
2022/01/23 17:26:20;;;;;;;1.80;1.30;;;;;;;;;;4995513;28;20050;-21
2022/01/23 17:28:47;;;;;;;2.35;2.15;;;;;;;;;;4995410;28;20046;-22
2022/01/23 17:31:14;;;;;;;2.10;1.33;;;;;;;;;;4995482;28;20034;-22
2022/01/23 17:33:40;;;;;;;1.63;1.50;;;;;;;;;;4995554;28;20034;-22
2022/01/23 17:36:06;;;;;;;2.50;1.27;;;;;;;;;;4995449;28;20061;-22
2022/01/23 17:38:36;;;;;;;2.65;1.48;;;;;;;;;;4995688;28;20530;-22
2022/01/23 17:41:02;;;;;;;2.00;0.97;;;;;;;;;;4995711;28;20030;-22
2022/01/23 17:43:29;;;;;;;4.57;1.40;;;;;;;;;;4995548;28;20033;-22
2022/01/23 17:45:55;;;;;;;1.13;1.00;;;;;;;;;;4995311;28;20370;-22
2022/01/23 17:51:08;;;;;;;1.02;1.02;;;;;;;;;;4995838;28;20402;-22
2022/01/23 17:53:35;;;;;;;1.55;1.25;;;;;;;;;;4995720;28;20022;-22
2022/01/23 17:56:01;;;;;;;2.35;1.50;;;;;;;;;;4995230;28;20026;-22
2022/01/23 17:58:28;;;;;;;3.33;2.90;;;;;;;;;;4995228;28;20030;-22
2022/01/23 18:00:54;;;;;;;2.03;1.20;;;;;;;;;;4995177;28;20045;-22
2022/01/23 18:03:21;;;;;;;0.98;0.98;;;;;;;;;;4995146;28;20034;-22
2022/01/23 18:05:48;;;;;;;2.03;0.98;;;;;;;;;;4995396;28;20057;-22
2022/01/23 18:08:15;;;;;;;1.45;1.30;;;;;;;;;;4995309;28;20030;-22
2022/01/23 18:10:41;;;;;;;1.70;1.35;;;;;;;;;;4995354;28;20032;-22
2022/01/23 18:13:10;;;;;;;3.28;1.10;;;;;;;;;;4997681;28;20030;-23
2022/01/23 18:15:38;;;;;;;1.52;1.40;;;;;;;;;;4999056;28;20104;-22
2022/01/23 18:18:08;;;;;;;1.55;1.27;;;;;;;;;;4999014;28;20034;-22
2022/01/23 18:20:35;;;;;;;1.42;1.30;;;;;;;;;;4998967;28;20509;-22
2022/01/23 18:23:01;;;;;;;1.42;1.30;;;;;;;;;;4999096;28;20365;-22
2022/01/23 18:25:29;;;;;;;1.38;1.08;;;;;;;;;;4998688;28;20088;-22
2022/01/23 18:27:58;;;;;;;3.85;1.25;;;;;;;;;;4999098;28;20061;-23
2022/01/23 18:30:25;;;;;;;1.15;1.10;;;;;;;;;;4998811;28;20080;-22
2022/01/23 18:32:53;;;;;;;2.17;1.33;;;;;;;;;;4998707;28;20037;-23